sensor_id;sensor_type;location;lat;lon;timestamp;P1;durP1;ratioP1;P2;durP2;ratioP2
23573;SDS011;11965;53.640;10.050;2023-11-21T00:01:21;17.02;;;16.64;;
23573;SDS011;11965;53.640;10.050;2023-11-21T00:03:48;16.87;;;16.74;;
23573;SDS011;11965;53.640;10.050;2023-11-21T00:06:15;17.28;;;17.09;;
23573;SDS011;11965;53.640;10.050;2023-11-21T00:08:42;18.56;;;18.48;;
23573;SDS011;11965;53.640;10.050;2023-11-21T00:11:09;18.97;;;18.58;;
23573;SDS011;11965;53.640;10.050;2023-11-21T00:13:37;20.33;;;19.75;;
23573;SDS011;11965;53.640;10.050;2023-11-21T00:16:04;21.54;;;20.73;;
23573;SDS011;11965;53.640;10.050;2023-11-21T00:18:32;20.91;;;20.53;;
23573;SDS011;11965;53.640;10.050;2023-11-21T00:20:59;20.57;;;20.15;;
23573;SDS011;11965;53.640;10.050;2023-11-21T00:23:26;20.40;;;20.04;;
23573;SDS011;11965;53.640;10.050;2023-11-21T00:25:53;20.38;;;20.06;;
23573;SDS011;11965;53.640;10.050;2023-11-21T00:28:20;20.05;;;19.81;;
23573;SDS011;11965;53.640;10.050;2023-11-21T00:30:49;18.26;;;17.94;;
23573;SDS011;11965;53.640;10.050;2023-11-21T00:33:16;18.17;;;17.98;;
23573;SDS011;11965;53.640;10.050;2023-11-21T00:35:42;18.98;;;18.80;;
23573;SDS011;11965;53.640;10.050;2023-11-21T00:38:09;19.41;;;18.91;;
23573;SDS011;11965;53.640;10.050;2023-11-21T00:40:37;20.01;;;19.39;;
23573;SDS011;11965;53.640;10.050;2023-11-21T00:43:04;19.63;;;19.10;;
23573;SDS011;11965;53.640;10.050;2023-11-21T00:45:31;20.15;;;19.72;;
23573;SDS011;11965;53.640;10.050;2023-11-21T00:47:59;19.76;;;19.39;;
23573;SDS011;11965;53.640;10.050;2023-11-21T00:50:26;20.71;;;20.37;;
23573;SDS011;11965;53.640;10.050;2023-11-21T00:52:53;21.91;;;21.30;;
23573;SDS011;11965;53.640;10.050;2023-11-21T00:55:20;22.04;;;21.45;;
23573;SDS011;11965;53.640;10.050;2023-11-21T00:57:47;22.03;;;21.46;;
23573;SDS011;11965;53.640;10.050;2023-11-21T01:00:14;23.05;;;22.47;;
23573;SDS011;11965;53.640;10.050;2023-11-21T01:02:43;23.20;;;22.57;;
23573;SDS011;11965;53.640;10.050;2023-11-21T01:05:11;22.80;;;22.19;;
23573;SDS011;11965;53.640;10.050;2023-11-21T01:07:39;20.45;;;19.84;;
23573;SDS011;11965;53.640;10.050;2023-11-21T01:10:06;21.38;;;20.87;;
23573;SDS011;11965;53.640;10.050;2023-11-21T01:12:34;21.32;;;20.72;;
23573;SDS011;11965;53.640;10.050;2023-11-21T01:15:02;20.46;;;20.04;;
23573;SDS011;11965;53.640;10.050;2023-11-21T01:17:32;18.69;;;18.22;;
23573;SDS011;11965;53.640;10.050;2023-11-21T01:20:00;17.27;;;16.99;;
23573;SDS011;11965;53.640;10.050;2023-11-21T01:22:29;17.66;;;17.29;;
23573;SDS011;11965;53.640;10.050;2023-11-21T01:24:56;17.39;;;17.00;;
23573;SDS011;11965;53.640;10.050;2023-11-21T01:27:23;16.91;;;16.76;;
23573;SDS011;11965;53.640;10.050;2023-11-21T01:29:50;17.45;;;17.23;;
23573;SDS011;11965;53.640;10.050;2023-11-21T01:32:18;17.96;;;17.75;;
23573;SDS011;11965;53.640;10.050;2023-11-21T01:34:45;17.96;;;17.62;;
23573;SDS011;11965;53.640;10.050;2023-11-21T01:37:14;15.97;;;15.69;;
23573;SDS011;11965;53.640;10.050;2023-11-21T01:39:44;15.55;;;15.37;;
23573;SDS011;11965;53.640;10.050;2023-11-21T01:42:12;14.76;;;14.51;;
23573;SDS011;11965;53.640;10.050;2023-11-21T01:44:39;15.79;;;15.21;;
23573;SDS011;11965;53.640;10.050;2023-11-21T01:47:06;15.00;;;14.68;;
23573;SDS011;11965;53.640;10.050;2023-11-21T01:49:35;14.88;;;14.54;;
23573;SDS011;11965;53.640;10.050;2023-11-21T01:52:04;14.86;;;14.41;;
23573;SDS011;11965;53.640;10.050;2023-11-21T01:54:32;14.01;;;13.63;;
23573;SDS011;11965;53.640;10.050;2023-11-21T01:57:04;13.04;;;12.84;;
23573;SDS011;11965;53.640;10.050;2023-11-21T01:59:33;11.99;;;11.91;;
23573;SDS011;11965;53.640;10.050;2023-11-21T02:02:02;11.57;;;11.31;;
23573;SDS011;11965;53.640;10.050;2023-11-21T02:04:30;10.53;;;10.42;;
23573;SDS011;11965;53.640;10.050;2023-11-21T02:06:58;10.84;;;10.66;;
23573;SDS011;11965;53.640;10.050;2023-11-21T02:09:25;10.92;;;10.80;;
23573;SDS011;11965;53.640;10.050;2023-11-21T02:11:54;10.76;;;10.60;;
23573;SDS011;11965;53.640;10.050;2023-11-21T02:14:24;10.41;;;10.31;;
23573;SDS011;11965;53.640;10.050;2023-11-21T02:16:52;10.61;;;10.46;;
23573;SDS011;11965;53.640;10.050;2023-11-21T02:19:20;10.29;;;10.18;;
23573;SDS011;11965;53.640;10.050;2023-11-21T02:21:49;9.84;;;9.72;;
23573;SDS011;11965;53.640;10.050;2023-11-21T02:24:19;9.75;;;9.69;;
23573;SDS011;11965;53.640;10.050;2023-11-21T02:26:46;10.01;;;10.01;;
23573;SDS011;11965;53.640;10.050;2023-11-21T02:29:13;10.34;;;10.28;;
23573;SDS011;11965;53.640;10.050;2023-11-21T02:31:45;9.90;;;9.90;;
23573;SDS011;11965;53.640;10.050;2023-11-21T02:34:15;9.79;;;9.79;;
23573;SDS011;11965;53.640;10.050;2023-11-21T02:36:42;9.57;;;9.57;;
23573;SDS011;11965;53.640;10.050;2023-11-21T02:39:11;9.41;;;9.41;;
23573;SDS011;11965;53.640;10.050;2023-11-21T02:41:39;9.76;;;9.76;;
23573;SDS011;11965;53.640;10.050;2023-11-21T02:44:06;9.97;;;9.97;;
23573;SDS011;11965;53.640;10.050;2023-11-21T02:46:33;9.54;;;9.54;;
23573;SDS011;11965;53.640;10.050;2023-11-21T02:49:00;9.35;;;9.35;;
23573;SDS011;11965;53.640;10.050;2023-11-21T02:51:27;10.19;;;10.18;;
23573;SDS011;11965;53.640;10.050;2023-11-21T02:53:54;9.79;;;9.77;;
23573;SDS011;11965;53.640;10.050;2023-11-21T02:56:24;9.55;;;9.54;;
23573;SDS011;11965;53.640;10.050;2023-11-21T02:58:55;10.16;;;10.12;;
23573;SDS011;11965;53.640;10.050;2023-11-21T03:01:23;10.76;;;10.49;;
23573;SDS011;11965;53.640;10.050;2023-11-21T03:03:50;9.89;;;9.88;;
23573;SDS011;11965;53.640;10.050;2023-11-21T03:06:17;10.56;;;10.50;;
23573;SDS011;11965;53.640;10.050;2023-11-21T03:08:45;10.85;;;10.79;;
23573;SDS011;11965;53.640;10.050;2023-11-21T03:11:12;11.10;;;11.06;;
23573;SDS011;11965;53.640;10.050;2023-11-21T03:13:40;11.40;;;11.15;;
23573;SDS011;11965;53.640;10.050;2023-11-21T03:16:09;11.07;;;10.80;;
23573;SDS011;11965;53.640;10.050;2023-11-21T03:18:37;11.10;;;10.98;;
23573;SDS011;11965;53.640;10.050;2023-11-21T03:21:04;11.41;;;11.08;;
23573;SDS011;11965;53.640;10.050;2023-11-21T03:23:34;11.72;;;11.66;;
23573;SDS011;11965;53.640;10.050;2023-11-21T03:26:02;11.72;;;11.72;;
23573;SDS011;11965;53.640;10.050;2023-11-21T03:28:29;11.16;;;11.16;;
23573;SDS011;11965;53.640;10.050;2023-11-21T03:30:56;12.04;;;12.04;;
23573;SDS011;11965;53.640;10.050;2023-11-21T03:33:25;11.83;;;11.78;;
23573;SDS011;11965;53.640;10.050;2023-11-21T03:35:52;12.03;;;11.83;;
23573;SDS011;11965;53.640;10.050;2023-11-21T03:38:19;11.93;;;11.87;;
23573;SDS011;11965;53.640;10.050;2023-11-21T03:40:46;12.03;;;11.97;;
23573;SDS011;11965;53.640;10.050;2023-11-21T03:43:13;12.01;;;11.80;;
23573;SDS011;11965;53.640;10.050;2023-11-21T03:45:41;12.55;;;12.10;;
23573;SDS011;11965;53.640;10.050;2023-11-21T03:48:09;12.89;;;12.67;;
23573;SDS011;11965;53.640;10.050;2023-11-21T03:50:39;12.40;;;12.40;;
23573;SDS011;11965;53.640;10.050;2023-11-21T03:53:06;13.14;;;12.91;;
23573;SDS011;11965;53.640;10.050;2023-11-21T03:55:33;12.81;;;12.67;;
23573;SDS011;11965;53.640;10.050;2023-11-21T03:58:00;13.04;;;13.01;;
23573;SDS011;11965;53.640;10.050;2023-11-21T04:00:28;12.69;;;12.69;;
23573;SDS011;11965;53.640;10.050;2023-11-21T04:02:55;12.33;;;12.30;;
23573;SDS011;11965;53.640;10.050;2023-11-21T04:05:22;12.76;;;12.68;;
23573;SDS011;11965;53.640;10.050;2023-11-21T04:07:51;12.43;;;12.34;;
23573;SDS011;11965;53.640;10.050;2023-11-21T04:10:18;12.69;;;12.56;;
23573;SDS011;11965;53.640;10.050;2023-11-21T04:12:45;12.43;;;12.43;;
23573;SDS011;11965;53.640;10.050;2023-11-21T04:15:13;12.50;;;12.50;;
23573;SDS011;11965;53.640;10.050;2023-11-21T04:17:40;12.51;;;12.39;;
23573;SDS011;11965;53.640;10.050;2023-11-21T04:20:08;12.69;;;12.69;;
23573;SDS011;11965;53.640;10.050;2023-11-21T04:22:36;12.45;;;12.45;;
23573;SDS011;11965;53.640;10.050;2023-11-21T04:25:09;12.38;;;12.38;;
23573;SDS011;11965;53.640;10.050;2023-11-21T04:27:36;12.08;;;12.08;;
23573;SDS011;11965;53.640;10.050;2023-11-21T04:30:05;12.10;;;12.06;;
23573;SDS011;11965;53.640;10.050;2023-11-21T04:32:32;12.04;;;12.04;;
23573;SDS011;11965;53.640;10.050;2023-11-21T04:35:00;12.59;;;12.59;;
23573;SDS011;11965;53.640;10.050;2023-11-21T04:37:30;11.75;;;11.70;;
23573;SDS011;11965;53.640;10.050;2023-11-21T04:39:57;12.14;;;12.13;;
23573;SDS011;11965;53.640;10.050;2023-11-21T04:42:25;11.89;;;11.89;;
23573;SDS011;11965;53.640;10.050;2023-11-21T04:44:52;12.22;;;12.22;;
23573;SDS011;11965;53.640;10.050;2023-11-21T04:47:20;12.23;;;12.20;;
23573;SDS011;11965;53.640;10.050;2023-11-21T04:49:47;12.28;;;12.28;;
23573;SDS011;11965;53.640;10.050;2023-11-21T04:52:14;11.76;;;11.76;;
23573;SDS011;11965;53.640;10.050;2023-11-21T04:54:41;12.45;;;12.45;;
23573;SDS011;11965;53.640;10.050;2023-11-21T04:57:08;11.40;;;11.40;;
23573;SDS011;11965;53.640;10.050;2023-11-21T04:59:36;11.37;;;11.36;;
23573;SDS011;11965;53.640;10.050;2023-11-21T05:02:03;12.09;;;12.09;;
23573;SDS011;11965;53.640;10.050;2023-11-21T05:04:30;12.25;;;12.25;;
23573;SDS011;11965;53.640;10.050;2023-11-21T05:06:57;12.35;;;12.08;;
23573;SDS011;11965;53.640;10.050;2023-11-21T05:09:26;12.08;;;11.93;;
23573;SDS011;11965;53.640;10.050;2023-11-21T05:11:53;12.15;;;12.13;;
23573;SDS011;11965;53.640;10.050;2023-11-21T05:14:20;11.56;;;11.56;;
23573;SDS011;11965;53.640;10.050;2023-11-21T05:16:49;12.20;;;12.20;;
23573;SDS011;11965;53.640;10.050;2023-11-21T05:19:17;12.10;;;12.10;;
23573;SDS011;11965;53.640;10.050;2023-11-21T05:21:44;12.14;;;12.07;;
23573;SDS011;11965;53.640;10.050;2023-11-21T05:24:11;12.29;;;12.28;;
23573;SDS011;11965;53.640;10.050;2023-11-21T05:26:38;12.26;;;12.26;;
23573;SDS011;11965;53.640;10.050;2023-11-21T05:29:05;12.69;;;12.55;;
23573;SDS011;11965;53.640;10.050;2023-11-21T05:31:32;12.52;;;12.45;;
23573;SDS011;11965;53.640;10.050;2023-11-21T05:34:00;12.33;;;12.29;;
23573;SDS011;11965;53.640;10.050;2023-11-21T05:36:27;12.10;;;12.06;;
23573;SDS011;11965;53.640;10.050;2023-11-21T05:38:54;12.18;;;12.11;;
23573;SDS011;11965;53.640;10.050;2023-11-21T05:41:20;12.17;;;12.17;;
23573;SDS011;11965;53.640;10.050;2023-11-21T05:43:47;12.17;;;12.08;;
23573;SDS011;11965;53.640;10.050;2023-11-21T05:46:13;12.33;;;12.12;;
23573;SDS011;11965;53.640;10.050;2023-11-21T05:48:40;11.89;;;11.86;;
23573;SDS011;11965;53.640;10.050;2023-11-21T05:51:09;12.28;;;12.27;;
23573;SDS011;11965;53.640;10.050;2023-11-21T05:53:37;12.63;;;12.63;;
23573;SDS011;11965;53.640;10.050;2023-11-21T05:56:04;11.78;;;11.77;;
23573;SDS011;11965;53.640;10.050;2023-11-21T05:58:31;12.40;;;12.40;;
23573;SDS011;11965;53.640;10.050;2023-11-21T06:00:58;12.28;;;12.14;;
23573;SDS011;11965;53.640;10.050;2023-11-21T06:03:25;11.74;;;11.74;;
23573;SDS011;11965;53.640;10.050;2023-11-21T06:05:52;12.34;;;12.34;;
23573;SDS011;11965;53.640;10.050;2023-11-21T06:08:20;12.70;;;12.70;;
23573;SDS011;11965;53.640;10.050;2023-11-21T06:10:47;12.08;;;12.04;;
23573;SDS011;11965;53.640;10.050;2023-11-21T06:13:15;12.22;;;12.22;;
23573;SDS011;11965;53.640;10.050;2023-11-21T06:15:45;12.11;;;12.09;;
23573;SDS011;11965;53.640;10.050;2023-11-21T06:18:12;12.63;;;12.63;;
23573;SDS011;11965;53.640;10.050;2023-11-21T06:20:39;13.42;;;13.35;;
23573;SDS011;11965;53.640;10.050;2023-11-21T06:23:06;12.58;;;12.56;;
23573;SDS011;11965;53.640;10.050;2023-11-21T06:25:35;12.84;;;12.52;;
23573;SDS011;11965;53.640;10.050;2023-11-21T06:28:02;11.59;;;11.58;;
23573;SDS011;11965;53.640;10.050;2023-11-21T06:30:29;11.34;;;11.34;;
23573;SDS011;11965;53.640;10.050;2023-11-21T06:32:56;11.81;;;11.78;;
23573;SDS011;11965;53.640;10.050;2023-11-21T06:35:24;11.91;;;11.91;;
23573;SDS011;11965;53.640;10.050;2023-11-21T06:37:53;11.67;;;11.63;;
23573;SDS011;11965;53.640;10.050;2023-11-21T06:40:19;11.59;;;11.48;;
23573;SDS011;11965;53.640;10.050;2023-11-21T06:42:48;11.85;;;11.67;;
23573;SDS011;11965;53.640;10.050;2023-11-21T06:45:15;11.85;;;11.85;;
23573;SDS011;11965;53.640;10.050;2023-11-21T06:47:43;11.92;;;11.82;;
23573;SDS011;11965;53.640;10.050;2023-11-21T06:50:10;12.12;;;12.12;;
23573;SDS011;11965;53.640;10.050;2023-11-21T06:52:37;11.43;;;11.43;;
23573;SDS011;11965;53.640;10.050;2023-11-21T06:55:04;11.90;;;11.90;;
23573;SDS011;11965;53.640;10.050;2023-11-21T06:57:33;11.99;;;11.99;;
23573;SDS011;11965;53.640;10.050;2023-11-21T07:00:02;12.37;;;12.37;;
23573;SDS011;11965;53.640;10.050;2023-11-21T07:02:30;12.22;;;12.16;;
23573;SDS011;11965;53.640;10.050;2023-11-21T07:04:57;13.06;;;12.94;;
23573;SDS011;11965;53.640;10.050;2023-11-21T07:07:24;12.40;;;12.40;;
23573;SDS011;11965;53.640;10.050;2023-11-21T07:09:51;12.56;;;12.56;;
23573;SDS011;11965;53.640;10.050;2023-11-21T07:12:18;11.99;;;11.99;;
23573;SDS011;11965;53.640;10.050;2023-11-21T07:14:45;12.41;;;12.40;;
23573;SDS011;11965;53.640;10.050;2023-11-21T07:17:13;12.40;;;12.40;;
23573;SDS011;11965;53.640;10.050;2023-11-21T07:19:42;11.90;;;11.90;;
23573;SDS011;11965;53.640;10.050;2023-11-21T07:22:09;11.87;;;11.80;;
23573;SDS011;11965;53.640;10.050;2023-11-21T07:24:36;11.72;;;11.70;;
23573;SDS011;11965;53.640;10.050;2023-11-21T07:27:03;11.28;;;11.23;;
23573;SDS011;11965;53.640;10.050;2023-11-21T07:29:30;10.91;;;10.91;;
23573;SDS011;11965;53.640;10.050;2023-11-21T07:31:58;10.34;;;10.34;;
23573;SDS011;11965;53.640;10.050;2023-11-21T07:34:27;9.76;;;9.76;;
23573;SDS011;11965;53.640;10.050;2023-11-21T07:36:54;9.71;;;9.65;;
23573;SDS011;11965;53.640;10.050;2023-11-21T07:39:21;10.00;;;9.97;;
23573;SDS011;11965;53.640;10.050;2023-11-21T07:41:48;9.60;;;9.57;;
23573;SDS011;11965;53.640;10.050;2023-11-21T07:44:15;9.97;;;9.74;;
23573;SDS011;11965;53.640;10.050;2023-11-21T07:46:43;9.72;;;9.72;;
23573;SDS011;11965;53.640;10.050;2023-11-21T07:49:10;9.26;;;9.26;;
23573;SDS011;11965;53.640;10.050;2023-11-21T07:51:41;9.49;;;9.49;;
23573;SDS011;11965;53.640;10.050;2023-11-21T07:54:09;9.56;;;9.56;;
23573;SDS011;11965;53.640;10.050;2023-11-21T07:56:36;9.25;;;9.25;;
23573;SDS011;11965;53.640;10.050;2023-11-21T07:59:03;9.13;;;9.12;;
23573;SDS011;11965;53.640;10.050;2023-11-21T08:01:30;9.35;;;9.34;;
23573;SDS011;11965;53.640;10.050;2023-11-21T08:03:58;8.95;;;8.95;;
23573;SDS011;11965;53.640;10.050;2023-11-21T08:06:28;8.98;;;8.98;;
23573;SDS011;11965;53.640;10.050;2023-11-21T08:08:57;8.37;;;8.37;;
23573;SDS011;11965;53.640;10.050;2023-11-21T08:11:25;8.35;;;8.35;;
23573;SDS011;11965;53.640;10.050;2023-11-21T08:13:54;8.40;;;8.40;;
23573;SDS011;11965;53.640;10.050;2023-11-21T08:16:22;8.69;;;8.69;;
23573;SDS011;11965;53.640;10.050;2023-11-21T08:18:49;8.80;;;8.80;;
23573;SDS011;11965;53.640;10.050;2023-11-21T08:21:16;8.50;;;8.50;;
23573;SDS011;11965;53.640;10.050;2023-11-21T08:23:44;8.52;;;8.52;;
23573;SDS011;11965;53.640;10.050;2023-11-21T08:26:12;8.35;;;8.35;;
23573;SDS011;11965;53.640;10.050;2023-11-21T08:28:43;8.32;;;8.32;;
23573;SDS011;11965;53.640;10.050;2023-11-21T08:31:10;8.36;;;8.36;;
23573;SDS011;11965;53.640;10.050;2023-11-21T08:33:37;8.34;;;8.34;;
23573;SDS011;11965;53.640;10.050;2023-11-21T08:36:06;8.42;;;8.42;;
23573;SDS011;11965;53.640;10.050;2023-11-21T08:38:34;8.22;;;8.22;;
23573;SDS011;11965;53.640;10.050;2023-11-21T08:41:03;9.04;;;9.04;;
23573;SDS011;11965;53.640;10.050;2023-11-21T08:43:34;9.34;;;9.26;;
23573;SDS011;11965;53.640;10.050;2023-11-21T08:46:01;9.69;;;9.69;;
23573;SDS011;11965;53.640;10.050;2023-11-21T08:48:28;13.30;;;13.19;;
23573;SDS011;11965;53.640;10.050;2023-11-21T08:50:55;15.45;;;15.13;;
23573;SDS011;11965;53.640;10.050;2023-11-21T08:53:22;10.96;;;10.90;;
23573;SDS011;11965;53.640;10.050;2023-11-21T08:55:51;9.66;;;9.66;;
23573;SDS011;11965;53.640;10.050;2023-11-21T08:58:19;8.60;;;8.60;;
23573;SDS011;11965;53.640;10.050;2023-11-21T09:00:48;8.88;;;8.88;;
23573;SDS011;11965;53.640;10.050;2023-11-21T09:03:15;8.41;;;8.36;;
23573;SDS011;11965;53.640;10.050;2023-11-21T09:05:42;7.97;;;7.89;;
23573;SDS011;11965;53.640;10.050;2023-11-21T09:08:09;7.43;;;7.38;;
23573;SDS011;11965;53.640;10.050;2023-11-21T09:10:37;7.65;;;7.65;;
23573;SDS011;11965;53.640;10.050;2023-11-21T09:13:04;7.72;;;7.72;;
23573;SDS011;11965;53.640;10.050;2023-11-21T09:15:34;6.97;;;6.88;;
23573;SDS011;11965;53.640;10.050;2023-11-21T09:18:02;6.39;;;6.34;;
23573;SDS011;11965;53.640;10.050;2023-11-21T09:20:30;5.88;;;5.88;;
23573;SDS011;11965;53.640;10.050;2023-11-21T09:22:57;5.71;;;5.71;;
23573;SDS011;11965;53.640;10.050;2023-11-21T09:25:24;5.30;;;5.30;;
23573;SDS011;11965;53.640;10.050;2023-11-21T09:27:51;5.41;;;5.41;;
23573;SDS011;11965;53.640;10.050;2023-11-21T09:30:17;5.50;;;5.49;;
23573;SDS011;11965;53.640;10.050;2023-11-21T09:32:45;5.08;;;5.08;;
23573;SDS011;11965;53.640;10.050;2023-11-21T09:35:14;5.17;;;5.17;;
23573;SDS011;11965;53.640;10.050;2023-11-21T09:37:43;5.61;;;5.61;;
23573;SDS011;11965;53.640;10.050;2023-11-21T09:40:11;6.00;;;6.00;;
23573;SDS011;11965;53.640;10.050;2023-11-21T09:42:43;5.79;;;5.79;;
23573;SDS011;11965;53.640;10.050;2023-11-21T09:45:21;5.57;;;5.57;;
23573;SDS011;11965;53.640;10.050;2023-11-21T09:47:52;5.40;;;5.40;;
23573;SDS011;11965;53.640;10.050;2023-11-21T09:50:22;5.32;;;5.32;;
23573;SDS011;11965;53.640;10.050;2023-11-21T09:52:55;5.38;;;5.38;;
23573;SDS011;11965;53.640;10.050;2023-11-21T09:55:27;5.42;;;5.41;;
23573;SDS011;11965;53.640;10.050;2023-11-21T09:57:56;5.30;;;5.30;;
23573;SDS011;11965;53.640;10.050;2023-11-21T10:00:23;5.39;;;5.39;;
23573;SDS011;11965;53.640;10.050;2023-11-21T10:02:50;5.43;;;5.43;;
23573;SDS011;11965;53.640;10.050;2023-11-21T10:05:18;5.42;;;5.42;;
23573;SDS011;11965;53.640;10.050;2023-11-21T10:07:49;5.22;;;5.22;;
23573;SDS011;11965;53.640;10.050;2023-11-21T10:10:18;5.09;;;5.09;;
23573;SDS011;11965;53.640;10.050;2023-11-21T10:12:48;5.19;;;5.19;;
23573;SDS011;11965;53.640;10.050;2023-11-21T10:15:18;4.89;;;4.89;;
23573;SDS011;11965;53.640;10.050;2023-11-21T10:17:50;4.78;;;4.78;;
23573;SDS011;11965;53.640;10.050;2023-11-21T10:20:19;4.34;;;4.34;;
23573;SDS011;11965;53.640;10.050;2023-11-21T10:22:47;4.27;;;4.27;;
23573;SDS011;11965;53.640;10.050;2023-11-21T10:25:15;5.29;;;5.29;;
23573;SDS011;11965;53.640;10.050;2023-11-21T10:27:47;5.30;;;5.30;;
23573;SDS011;11965;53.640;10.050;2023-11-21T10:30:17;5.73;;;5.73;;
23573;SDS011;11965;53.640;10.050;2023-11-21T10:32:44;5.67;;;5.67;;
23573;SDS011;11965;53.640;10.050;2023-11-21T10:35:13;4.58;;;4.58;;
23573;SDS011;11965;53.640;10.050;2023-11-21T10:37:40;5.14;;;5.14;;
23573;SDS011;11965;53.640;10.050;2023-11-21T10:40:09;6.18;;;6.18;;
23573;SDS011;11965;53.640;10.050;2023-11-21T10:42:38;4.61;;;4.61;;
23573;SDS011;11965;53.640;10.050;2023-11-21T10:45:06;5.03;;;5.03;;
23573;SDS011;11965;53.640;10.050;2023-11-21T10:47:38;5.21;;;5.21;;
23573;SDS011;11965;53.640;10.050;2023-11-21T10:50:05;4.81;;;4.81;;
23573;SDS011;11965;53.640;10.050;2023-11-21T10:52:36;5.00;;;5.00;;
23573;SDS011;11965;53.640;10.050;2023-11-21T10:55:13;4.84;;;4.84;;
23573;SDS011;11965;53.640;10.050;2023-11-21T10:57:45;4.85;;;4.85;;
23573;SDS011;11965;53.640;10.050;2023-11-21T11:00:16;4.88;;;4.88;;
23573;SDS011;11965;53.640;10.050;2023-11-21T11:02:46;5.03;;;5.03;;
23573;SDS011;11965;53.640;10.050;2023-11-21T11:05:16;5.31;;;5.31;;
23573;SDS011;11965;53.640;10.050;2023-11-21T11:07:47;5.10;;;5.10;;
23573;SDS011;11965;53.640;10.050;2023-11-21T11:10:19;5.21;;;5.21;;
23573;SDS011;11965;53.640;10.050;2023-11-21T11:12:49;4.55;;;4.55;;
23573;SDS011;11965;53.640;10.050;2023-11-21T11:15:17;5.18;;;5.18;;
23573;SDS011;11965;53.640;10.050;2023-11-21T11:17:45;5.28;;;5.28;;
23573;SDS011;11965;53.640;10.050;2023-11-21T11:20:16;5.53;;;5.53;;
23573;SDS011;11965;53.640;10.050;2023-11-21T11:22:48;5.23;;;5.23;;
23573;SDS011;11965;53.640;10.050;2023-11-21T11:25:29;5.60;;;5.60;;
23573;SDS011;11965;53.640;10.050;2023-11-21T11:28:20;5.23;;;5.23;;
23573;SDS011;11965;53.640;10.050;2023-11-21T11:30:56;5.28;;;5.28;;
23573;SDS011;11965;53.640;10.050;2023-11-21T11:33:32;4.70;;;4.70;;
23573;SDS011;11965;53.640;10.050;2023-11-21T11:36:06;4.74;;;4.74;;
23573;SDS011;11965;53.640;10.050;2023-11-21T11:38:44;4.74;;;4.73;;
23573;SDS011;11965;53.640;10.050;2023-11-21T11:41:19;4.95;;;4.93;;
23573;SDS011;11965;53.640;10.050;2023-11-21T11:43:53;4.87;;;4.87;;
23573;SDS011;11965;53.640;10.050;2023-11-21T11:46:20;4.96;;;4.96;;
23573;SDS011;11965;53.640;10.050;2023-11-21T11:49:06;4.72;;;4.72;;
23573;SDS011;11965;53.640;10.050;2023-11-21T11:51:34;5.02;;;5.02;;
23573;SDS011;11965;53.640;10.050;2023-11-21T11:54:01;4.94;;;4.90;;
23573;SDS011;11965;53.640;10.050;2023-11-21T11:56:29;4.83;;;4.83;;
23573;SDS011;11965;53.640;10.050;2023-11-21T11:59:01;5.05;;;5.05;;
23573;SDS011;11965;53.640;10.050;2023-11-21T12:01:31;5.00;;;5.00;;
23573;SDS011;11965;53.640;10.050;2023-11-21T12:04:23;5.03;;;5.03;;
23573;SDS011;11965;53.640;10.050;2023-11-21T12:06:56;4.98;;;4.98;;
23573;SDS011;11965;53.640;10.050;2023-11-21T12:09:28;4.77;;;4.77;;
23573;SDS011;11965;53.640;10.050;2023-11-21T12:11:55;4.77;;;4.77;;
23573;SDS011;11965;53.640;10.050;2023-11-21T12:14:24;5.03;;;5.03;;
23573;SDS011;11965;53.640;10.050;2023-11-21T12:16:51;4.87;;;4.87;;
23573;SDS011;11965;53.640;10.050;2023-11-21T12:19:19;4.84;;;4.84;;
23573;SDS011;11965;53.640;10.050;2023-11-21T12:21:49;5.36;;;5.36;;
23573;SDS011;11965;53.640;10.050;2023-11-21T12:24:18;5.07;;;5.07;;
23573;SDS011;11965;53.640;10.050;2023-11-21T12:26:45;5.46;;;5.45;;
23573;SDS011;11965;53.640;10.050;2023-11-21T12:29:12;5.39;;;5.39;;
23573;SDS011;11965;53.640;10.050;2023-11-21T12:31:40;5.28;;;5.28;;
23573;SDS011;11965;53.640;10.050;2023-11-21T12:34:07;5.72;;;5.72;;
23573;SDS011;11965;53.640;10.050;2023-11-21T12:36:37;5.59;;;5.59;;
23573;SDS011;11965;53.640;10.050;2023-11-21T12:39:04;5.43;;;5.43;;
23573;SDS011;11965;53.640;10.050;2023-11-21T12:41:31;5.37;;;5.37;;
23573;SDS011;11965;53.640;10.050;2023-11-21T12:43:58;6.58;;;6.56;;
23573;SDS011;11965;53.640;10.050;2023-11-21T12:46:25;7.12;;;7.07;;
23573;SDS011;11965;53.640;10.050;2023-11-21T12:48:57;6.21;;;6.10;;
23573;SDS011;11965;53.640;10.050;2023-11-21T12:51:24;5.47;;;5.43;;
23573;SDS011;11965;53.640;10.050;2023-11-21T12:53:51;5.56;;;5.56;;
23573;SDS011;11965;53.640;10.050;2023-11-21T12:56:20;6.05;;;6.02;;
23573;SDS011;11965;53.640;10.050;2023-11-21T12:58:49;6.62;;;6.62;;
23573;SDS011;11965;53.640;10.050;2023-11-21T13:01:25;5.98;;;5.98;;
23573;SDS011;11965;53.640;10.050;2023-11-21T13:03:56;5.88;;;5.88;;
23573;SDS011;11965;53.640;10.050;2023-11-21T13:06:25;6.27;;;6.27;;
23573;SDS011;11965;53.640;10.050;2023-11-21T13:08:53;5.42;;;5.42;;
23573;SDS011;11965;53.640;10.050;2023-11-21T13:11:23;5.37;;;5.37;;
23573;SDS011;11965;53.640;10.050;2023-11-21T13:13:51;5.70;;;5.70;;
23573;SDS011;11965;53.640;10.050;2023-11-21T13:16:19;6.48;;;6.48;;
23573;SDS011;11965;53.640;10.050;2023-11-21T13:18:47;5.79;;;5.79;;
23573;SDS011;11965;53.640;10.050;2023-11-21T13:21:16;5.67;;;5.67;;
23573;SDS011;11965;53.640;10.050;2023-11-21T13:23:43;6.52;;;6.52;;
23573;SDS011;11965;53.640;10.050;2023-11-21T13:26:11;5.73;;;5.73;;
23573;SDS011;11965;53.640;10.050;2023-11-21T13:28:40;5.65;;;5.64;;
23573;SDS011;11965;53.640;10.050;2023-11-21T13:31:11;5.66;;;5.65;;
23573;SDS011;11965;53.640;10.050;2023-11-21T13:33:48;5.70;;;5.70;;
23573;SDS011;11965;53.640;10.050;2023-11-21T13:36:22;5.46;;;5.46;;
23573;SDS011;11965;53.640;10.050;2023-11-21T13:38:49;4.82;;;4.82;;
23573;SDS011;11965;53.640;10.050;2023-11-21T13:41:17;4.71;;;4.71;;
23573;SDS011;11965;53.640;10.050;2023-11-21T13:43:45;4.67;;;4.67;;
23573;SDS011;11965;53.640;10.050;2023-11-21T13:46:24;4.22;;;4.22;;
23573;SDS011;11965;53.640;10.050;2023-11-21T13:48:51;4.53;;;4.53;;
23573;SDS011;11965;53.640;10.050;2023-11-21T13:51:22;4.30;;;4.30;;
23573;SDS011;11965;53.640;10.050;2023-11-21T13:53:57;4.26;;;4.26;;
23573;SDS011;11965;53.640;10.050;2023-11-21T13:56:24;4.64;;;4.64;;
23573;SDS011;11965;53.640;10.050;2023-11-21T13:58:54;4.82;;;4.82;;
23573;SDS011;11965;53.640;10.050;2023-11-21T14:01:21;5.27;;;5.24;;
23573;SDS011;11965;53.640;10.050;2023-11-21T14:04:10;4.94;;;4.94;;
23573;SDS011;11965;53.640;10.050;2023-11-21T14:06:46;5.18;;;5.18;;
23573;SDS011;11965;53.640;10.050;2023-11-21T14:09:16;4.93;;;4.93;;
23573;SDS011;11965;53.640;10.050;2023-11-21T14:11:50;4.90;;;4.89;;
23573;SDS011;11965;53.640;10.050;2023-11-21T14:14:19;4.97;;;4.97;;
23573;SDS011;11965;53.640;10.050;2023-11-21T14:16:46;4.66;;;4.66;;
23573;SDS011;11965;53.640;10.050;2023-11-21T14:19:13;5.08;;;5.08;;
23573;SDS011;11965;53.640;10.050;2023-11-21T14:21:42;4.83;;;4.83;;
23573;SDS011;11965;53.640;10.050;2023-11-21T14:24:11;4.59;;;4.59;;
23573;SDS011;11965;53.640;10.050;2023-11-21T14:26:39;4.12;;;4.12;;
23573;SDS011;11965;53.640;10.050;2023-11-21T14:29:07;3.33;;;3.33;;